createdAt,value
2023-04-19T00:02:10.646Z,8.93
2023-04-19T00:04:39.280Z,9.87
2023-04-19T00:07:07.717Z,9.80
2023-04-19T00:09:35.911Z,9.10
2023-04-19T00:12:05.763Z,11.03
2023-04-19T00:14:33.942Z,8.77
2023-04-19T00:17:02.212Z,9.47
2023-04-19T00:19:30.540Z,9.30
2023-04-19T00:21:58.786Z,9.60
2023-04-19T00:24:26.942Z,9.70
2023-04-19T00:26:55.223Z,10.23
2023-04-19T00:29:24.825Z,9.83
2023-04-19T00:31:53.075Z,10.20
2023-04-19T00:34:21.265Z,9.97
2023-04-19T00:36:49.404Z,9.93
2023-04-19T00:39:17.543Z,10.27
2023-04-19T00:41:45.728Z,11.00
2023-04-19T00:44:14.079Z,12.80
2023-04-19T00:46:44.694Z,11.67
2023-04-19T00:49:12.963Z,11.57
2023-04-19T00:51:41.204Z,10.43
2023-04-19T00:54:09.678Z,10.23
2023-04-19T00:56:37.873Z,13.37
2023-04-19T00:59:06.069Z,15.27
2023-04-19T01:01:34.907Z,12.40
2023-04-19T01:04:04.936Z,12.00
2023-04-19T01:06:33.376Z,12.83
2023-04-19T01:09:01.589Z,12.07
2023-04-19T01:11:30.233Z,13.17
2023-04-19T01:13:58.638Z,13.63
2023-04-19T01:16:28.098Z,12.87
2023-04-19T01:18:57.037Z,13.40
2023-04-19T01:21:26.618Z,12.33
2023-04-19T01:23:56.180Z,15.03
2023-04-19T01:26:24.334Z,11.93
2023-04-19T01:28:52.513Z,13.70
2023-04-19T01:31:20.880Z,11.43
2023-04-19T01:33:49.055Z,12.07
2023-04-19T01:36:17.229Z,13.63
2023-04-19T01:38:47.729Z,12.23
2023-04-19T01:41:17.404Z,10.37
2023-04-19T01:43:45.555Z,11.50
2023-04-19T01:46:13.688Z,11.70
2023-04-19T01:48:41.870Z,13.20
2023-04-19T01:51:10.041Z,12.03
2023-04-19T01:53:38.190Z,12.80
2023-04-19T01:56:06.969Z,11.67
2023-04-19T01:58:36.757Z,13.13
2023-04-19T02:01:04.959Z,11.43
2023-04-19T02:03:33.266Z,9.27
2023-04-19T02:06:01.554Z,9.90
2023-04-19T02:08:29.693Z,11.27
2023-04-19T02:10:57.889Z,11.30
2023-04-19T02:13:26.083Z,12.30
2023-04-19T02:15:55.628Z,11.23
2023-04-19T02:18:24.114Z,10.53
2023-04-19T02:20:53.395Z,9.57
2023-04-19T02:23:21.556Z,11.63
2023-04-19T02:25:49.716Z,10.70
2023-04-19T02:28:17.901Z,10.23
2023-04-19T02:30:46.244Z,10.87
2023-04-19T02:33:16.425Z,10.97
2023-04-19T02:35:44.644Z,10.87
2023-04-19T02:38:12.825Z,11.10
2023-04-19T02:40:41.011Z,11.07
2023-04-19T02:43:09.174Z,11.00
2023-04-19T02:45:37.412Z,12.93
2023-04-19T02:48:06.429Z,10.57
2023-04-19T02:50:38.733Z,11.40
2023-04-19T02:53:07.018Z,11.17
2023-04-19T02:55:35.258Z,12.27
2023-04-19T02:58:03.469Z,14.37
2023-04-19T03:00:31.763Z,11.37
2023-04-19T03:03:00.860Z,11.80
2023-04-19T03:05:29.374Z,12.67
2023-04-19T03:07:58.985Z,11.20
2023-04-19T03:10:27.335Z,9.70
2023-04-19T03:12:55.591Z,12.93
2023-04-19T03:15:23.785Z,10.37
2023-04-19T03:17:52.144Z,12.70
2023-04-19T03:20:21.125Z,17.07
2023-04-19T03:22:49.336Z,10.07
2023-04-19T03:25:19.098Z,11.93
2023-04-19T03:27:48.156Z,13.37
2023-04-19T03:30:16.554Z,10.30
2023-04-19T03:32:44.797Z,11.33
2023-04-19T03:35:13.028Z,12.33
2023-04-19T03:37:41.209Z,11.43
2023-04-19T03:40:10.177Z,10.00
2023-04-19T03:42:39.732Z,11.93
2023-04-19T03:45:08.746Z,12.37
2023-04-19T03:47:36.941Z,13.73
2023-04-19T03:50:05.545Z,11.23
2023-04-19T03:52:33.821Z,10.90
2023-04-19T03:55:02.118Z,11.40
2023-04-19T03:57:30.551Z,11.70
2023-04-19T04:00:01.505Z,10.60
2023-04-19T04:02:29.847Z,13.13
2023-04-19T04:04:58.365Z,12.43
2023-04-19T04:07:26.824Z,11.13
2023-04-19T04:09:55.016Z,12.93
2023-04-19T04:12:23.208Z,12.23
2023-04-19T04:14:51.438Z,13.30
2023-04-19T04:17:21.125Z,13.77
2023-04-19T04:19:49.366Z,11.70
2023-04-19T04:22:17.973Z,12.83
2023-04-19T04:24:47.329Z,13.40
2023-04-19T04:27:20.233Z,13.77
2023-04-19T04:29:49.562Z,12.50
2023-04-19T04:32:18.271Z,13.30
2023-04-19T04:34:47.873Z,13.53
2023-04-19T04:37:16.356Z,13.20
2023-04-19T04:39:44.741Z,12.80
2023-04-19T04:42:13.566Z,16.30
2023-04-19T04:44:42.202Z,24.40
2023-04-19T04:47:10.353Z,14.07
2023-04-19T04:49:38.505Z,14.80
2023-04-19T04:52:08.706Z,14.17
2023-04-19T04:54:36.926Z,14.43
2023-04-19T04:57:05.324Z,15.87
2023-04-19T04:59:33.671Z,13.77
2023-04-19T05:02:02.009Z,19.27
2023-04-19T05:04:30.217Z,13.67
2023-04-19T05:06:58.503Z,16.33
2023-04-19T05:09:28.132Z,14.55
2023-04-19T05:11:56.361Z,14.97
2023-04-19T05:14:24.649Z,15.00
2023-04-19T05:16:52.816Z,14.60
2023-04-19T05:19:20.973Z,16.00
2023-04-19T05:21:49.714Z,14.30
2023-04-19T05:24:18.244Z,16.67
2023-04-19T05:26:47.997Z,15.30
2023-04-19T05:29:16.162Z,15.17
2023-04-19T05:31:44.474Z,15.60
2023-04-19T05:34:12.662Z,16.13
2023-04-19T05:36:40.807Z,16.20
2023-04-19T05:39:09.467Z,14.17
2023-04-19T05:41:37.641Z,26.10
2023-04-19T05:44:07.268Z,19.10
2023-04-19T05:46:36.308Z,17.37
2023-04-19T05:49:04.798Z,15.87
2023-04-19T05:51:33.001Z,20.07
2023-04-19T05:54:01.961Z,14.87
2023-04-19T05:56:30.526Z,21.10
2023-04-19T05:59:00.861Z,16.23
2023-04-19T06:01:30.484Z,18.10
2023-04-19T06:03:58.791Z,17.13
2023-04-19T06:06:27.673Z,19.73
2023-04-19T06:08:56.165Z,17.73
2023-04-19T06:11:29.188Z,16.60
2023-04-19T06:13:59.880Z,22.17
2023-04-19T06:16:29.557Z,20.67
2023-04-19T06:18:58.022Z,18.73
2023-04-19T06:21:26.986Z,19.63
2023-04-19T06:23:55.152Z,19.13
2023-04-19T06:26:23.315Z,16.80
2023-04-19T06:28:51.517Z,20.13
2023-04-19T06:31:20.036Z,18.30
2023-04-19T06:33:49.715Z,22.67
2023-04-19T06:36:17.942Z,18.87
2023-04-19T06:38:46.357Z,19.83
2023-04-19T06:41:14.831Z,19.77
2023-04-19T06:43:44.717Z,20.97
2023-04-19T06:46:14.066Z,18.77
2023-04-19T06:48:42.478Z,19.37
2023-04-19T06:51:12.100Z,24.77
2023-04-19T06:53:40.275Z,24.30
2023-04-19T06:56:10.075Z,19.40
2023-04-19T06:58:38.276Z,19.90
2023-04-19T07:01:06.611Z,20.67
2023-04-19T07:03:34.976Z,20.57
2023-04-19T07:06:03.226Z,19.50
2023-04-19T07:08:46.302Z,20.60
2023-04-19T07:11:17.260Z,19.43
2023-04-19T07:13:45.435Z,21.43
2023-04-19T07:16:14.688Z,19.53
2023-04-19T07:18:43.904Z,20.80
2023-04-19T07:21:12.138Z,22.07
2023-04-19T07:23:41.797Z,24.20
2023-04-19T07:26:09.992Z,20.07
2023-04-19T07:28:38.132Z,23.00
2023-04-19T07:31:09.417Z,20.97
2023-04-19T07:33:37.669Z,21.53
2023-04-19T07:36:06.606Z,19.53
2023-04-19T07:38:34.849Z,18.63
2023-04-19T07:41:05.288Z,21.57
2023-04-19T07:43:33.481Z,33.10
2023-04-19T07:46:01.742Z,20.70
2023-04-19T07:48:30.317Z,19.13
2023-04-19T07:50:58.606Z,18.33
2023-04-19T07:53:27.586Z,16.33
2023-04-19T07:55:55.847Z,15.20
2023-04-19T07:58:25.512Z,18.63
2023-04-19T08:00:53.693Z,20.20
2023-04-19T08:03:25.171Z,16.87
2023-04-19T08:05:53.796Z,16.83
2023-04-19T08:08:22.197Z,16.80
2023-04-19T08:10:50.453Z,19.30
2023-04-19T08:13:19.125Z,15.90
2023-04-19T08:18:22.883Z,18.97
2023-04-19T08:20:51.191Z,23.07
2023-04-19T08:23:25.801Z,17.53
2023-04-19T08:25:57.846Z,16.60
2023-04-19T08:28:26.050Z,17.20
2023-04-19T08:30:56.098Z,18.23
2023-04-19T08:33:24.248Z,17.80
2023-04-19T08:35:52.612Z,18.13
2023-04-19T08:38:20.955Z,16.50
2023-04-19T08:40:53.227Z,16.33
2023-04-19T08:43:22.396Z,16.90
2023-04-19T08:45:52.454Z,16.10
2023-04-19T08:48:24.181Z,13.93
2023-04-19T08:51:04.345Z,16.47
2023-04-19T08:53:35.830Z,14.40
2023-04-19T08:56:17.509Z,14.23
2023-04-19T09:01:33.840Z,13.23
2023-04-19T09:04:26.470Z,15.13
2023-04-19T09:06:53.948Z,13.25
2023-04-19T09:09:35.354Z,14.63
2023-04-19T09:12:17.898Z,14.13
2023-04-19T09:15:01.125Z,16.70
2023-04-19T09:17:30.618Z,12.45
2023-04-19T09:20:00.334Z,12.73
2023-04-19T09:22:28.761Z,13.85
2023-04-19T09:27:30.094Z,11.90
2023-04-19T09:29:59.519Z,11.95
2023-04-19T09:32:28.728Z,12.82
2023-04-19T09:34:59.624Z,14.75
2023-04-19T09:39:59.744Z,14.55
2023-04-19T09:48:02.546Z,14.15
2023-04-19T09:50:33.468Z,12.50
2023-04-19T09:53:04.558Z,12.18
2023-04-19T09:55:42.306Z,18.80
2023-04-19T09:58:22.252Z,14.27
2023-04-19T10:00:57.183Z,22.08
2023-04-19T10:03:32.269Z,13.95
2023-04-19T10:06:10.536Z,13.18
2023-04-19T10:08:45.362Z,13.68
2023-04-19T10:11:14.248Z,15.70
2023-04-19T10:13:44.075Z,13.40
2023-04-19T10:16:19.420Z,13.90
2023-04-19T10:18:50.082Z,15.13
2023-04-19T10:21:21.678Z,12.88
2023-04-19T10:23:50.370Z,11.93
2023-04-19T10:26:18.590Z,15.15
2023-04-19T10:28:48.554Z,12.00
2023-04-19T10:31:16.867Z,10.82
2023-04-19T10:33:45.153Z,15.25
2023-04-19T10:36:17.739Z,11.35
2023-04-19T10:38:49.283Z,15.63
2023-04-19T10:41:19.032Z,15.65
2023-04-19T10:43:48.788Z,11.10
2023-04-19T10:46:37.214Z,10.93
2023-04-19T10:49:07.906Z,12.35
2023-04-19T10:51:37.468Z,17.23
2023-04-19T10:54:08.484Z,15.15
2023-04-19T10:57:05.327Z,12.10
2023-04-19T10:59:34.960Z,13.00
2023-04-19T11:02:04.864Z,12.27
2023-04-19T11:05:19.140Z,11.98
2023-04-19T11:07:48.538Z,10.02
2023-04-19T11:10:35.968Z,10.07
2023-04-19T11:13:04.661Z,10.27
2023-04-19T11:15:33.262Z,12.18
2023-04-19T11:18:11.917Z,11.07
2023-04-19T11:20:44.357Z,10.40
2023-04-19T11:23:18.182Z,11.35
2023-04-19T11:25:48.624Z,14.57
2023-04-19T11:28:18.527Z,11.00
2023-04-19T11:30:47.389Z,13.13
2023-04-19T11:33:15.680Z,13.38
2023-04-19T11:35:45.525Z,18.08
2023-04-19T11:38:14.909Z,12.80
2023-04-19T11:40:43.142Z,12.20
2023-04-19T11:43:13.019Z,12.52
2023-04-19T11:45:41.991Z,12.77
2023-04-19T11:48:16.173Z,11.55
2023-04-19T11:50:45.771Z,14.68
2023-04-19T11:53:16.274Z,13.88
2023-04-19T11:55:46.356Z,11.68
2023-04-19T11:58:31.140Z,10.85
2023-04-19T12:01:08.606Z,16.17
2023-04-19T12:03:41.836Z,11.27
2023-04-19T12:06:14.281Z,10.45
2023-04-19T12:08:47.210Z,14.40
2023-04-19T12:11:21.553Z,14.13
2023-04-19T12:14:09.444Z,12.93
2023-04-19T12:16:37.715Z,11.77
2023-04-19T12:19:17.688Z,12.63
2023-04-19T12:21:49.073Z,16.92
2023-04-19T12:24:17.919Z,13.40
2023-04-19T12:26:56.243Z,11.60
2023-04-19T12:29:26.263Z,12.25
2023-04-19T12:31:54.653Z,18.60
2023-04-19T12:34:22.898Z,11.32
2023-04-19T12:36:51.314Z,10.73
2023-04-19T12:39:19.776Z,12.93
2023-04-19T12:41:48.924Z,12.38
2023-04-19T12:44:17.565Z,15.15
2023-04-19T12:46:47.193Z,10.45
2023-04-19T12:49:15.574Z,9.65
2023-04-19T12:51:43.942Z,10.90
2023-04-19T12:54:12.214Z,10.13
2023-04-19T12:56:40.378Z,10.32
2023-04-19T12:59:08.624Z,13.60
2023-04-19T13:01:36.937Z,9.32
2023-04-19T13:04:08.045Z,11.63
2023-04-19T13:06:36.404Z,11.10
2023-04-19T13:09:14.041Z,12.43
2023-04-19T13:11:43.065Z,12.50
2023-04-19T13:14:11.276Z,13.40
2023-04-19T13:16:39.677Z,15.48
2023-04-19T13:19:09.393Z,14.13
2023-04-19T13:21:37.650Z,13.80
2023-04-19T13:24:06.647Z,11.30
2023-04-19T13:26:35.638Z,11.77
2023-04-19T13:29:04.306Z,9.73
2023-04-19T13:31:32.630Z,10.00
2023-04-19T13:34:01.593Z,10.10
2023-04-19T13:36:31.327Z,11.85
2023-04-19T13:38:59.758Z,10.95
2023-04-19T13:41:27.959Z,12.23
2023-04-19T13:43:56.289Z,12.68
2023-04-19T13:46:24.960Z,16.25
2023-04-19T13:48:53.165Z,10.80
2023-04-19T13:51:21.433Z,11.15
2023-04-19T13:53:51.306Z,10.73
2023-04-19T13:56:19.562Z,12.43
2023-04-19T13:58:47.838Z,11.80
2023-04-19T14:01:16.275Z,13.23
2023-04-19T14:03:44.820Z,12.55
2023-04-19T14:06:13.127Z,11.88
2023-04-19T14:08:41.306Z,11.05
2023-04-19T14:11:10.959Z,13.82
2023-04-19T14:13:39.202Z,8.73
2023-04-19T14:16:08.191Z,10.05
2023-04-19T14:18:36.462Z,8.95
2023-04-19T14:21:05.089Z,11.10
2023-04-19T14:23:34.564Z,10.35
2023-04-19T14:26:03.105Z,23.83
2023-04-19T14:28:32.764Z,23.77
2023-04-19T14:31:01.004Z,14.68
2023-04-19T14:33:29.287Z,11.43
2023-04-19T14:35:57.478Z,12.10
2023-04-19T14:38:25.649Z,12.77
2023-04-19T14:40:53.842Z,11.75
2023-04-19T14:43:22.128Z,10.27
2023-04-19T14:45:52.226Z,10.57
2023-04-19T14:48:22.240Z,12.45
2023-04-19T14:50:51.120Z,10.65
2023-04-19T14:53:19.358Z,11.80
2023-04-19T14:55:47.571Z,11.50
2023-04-19T14:58:15.780Z,8.57
2023-04-19T15:00:44.074Z,10.45
2023-04-19T15:03:13.814Z,9.73
2023-04-19T15:05:42.208Z,9.10
2023-04-19T15:08:20.169Z,9.10
2023-04-19T15:10:57.712Z,10.55
2023-04-19T15:13:26.017Z,8.85
2023-04-19T15:15:54.246Z,8.88
2023-04-19T15:18:23.850Z,10.63
2023-04-19T15:20:52.098Z,10.30
2023-04-19T15:23:22.363Z,8.13
2023-04-19T15:25:50.901Z,10.88
2023-04-19T15:28:19.145Z,9.90
2023-04-19T15:30:49.199Z,8.38
2023-04-19T15:33:17.451Z,12.20
2023-04-19T15:35:47.035Z,8.13
2023-04-19T15:38:15.240Z,9.32
2023-04-19T15:40:43.414Z,11.48
2023-04-19T15:43:11.602Z,12.60
2023-04-19T15:45:39.775Z,10.07
2023-04-19T15:48:08.238Z,11.10
2023-04-19T15:50:38.132Z,8.20
2023-04-19T15:53:08.816Z,9.30
2023-04-19T15:55:37.638Z,4.90
2023-04-19T15:58:06.401Z,6.35
2023-04-19T16:00:34.599Z,8.10
2023-04-19T16:03:02.990Z,7.90
2023-04-19T16:05:31.271Z,11.32
2023-04-19T16:08:03.911Z,10.80
2023-04-19T16:10:33.776Z,8.15
2023-04-19T16:13:02.134Z,6.82
2023-04-19T16:15:30.311Z,7.32
2023-04-19T16:17:58.647Z,6.18
2023-04-19T16:20:26.933Z,8.13
2023-04-19T16:22:55.157Z,8.10
2023-04-19T16:25:23.739Z,9.88
2023-04-19T16:27:53.305Z,6.93
2023-04-19T16:30:22.250Z,7.00
2023-04-19T16:32:51.142Z,9.02
2023-04-19T16:35:19.359Z,9.20
2023-04-19T16:37:47.531Z,8.23
2023-04-19T16:40:15.914Z,9.02
2023-04-19T16:42:44.179Z,8.35
2023-04-19T16:45:13.870Z,8.32
2023-04-19T16:47:43.883Z,11.52
2023-04-19T16:50:12.923Z,11.50
2023-04-19T16:52:41.217Z,9.93
2023-04-19T16:55:10.017Z,11.57
2023-04-19T16:57:38.260Z,11.25
2023-04-19T17:00:08.108Z,11.38
2023-04-19T17:02:37.898Z,9.27
2023-04-19T17:05:07.339Z,13.27
2023-04-19T17:07:35.617Z,9.43
2023-04-19T17:10:03.878Z,7.70
2023-04-19T17:12:32.083Z,9.02
2023-04-19T17:15:00.317Z,10.82
2023-04-19T17:17:28.620Z,8.15
2023-04-19T17:19:58.197Z,9.15
2023-04-19T17:22:26.360Z,10.05
2023-04-19T17:24:57.322Z,16.95
2023-04-19T17:27:25.615Z,24.92
2023-04-19T17:29:53.857Z,24.10
2023-04-19T17:32:22.407Z,24.00
2023-04-19T17:34:50.667Z,17.67
2023-04-19T17:37:20.213Z,20.55
2023-04-19T17:39:48.386Z,15.80
2023-04-19T17:42:16.574Z,16.35
2023-04-19T17:44:44.768Z,16.23
2023-04-19T17:47:12.946Z,12.35
2023-04-19T17:49:41.140Z,11.70
2023-04-19T17:52:09.331Z,12.60
2023-04-19T17:54:38.991Z,11.07
2023-04-19T17:57:07.479Z,14.10
2023-04-19T17:59:35.917Z,16.35
2023-04-19T18:02:04.190Z,18.55
2023-04-19T18:04:32.487Z,17.80
2023-04-19T18:07:00.831Z,26.93
2023-04-19T18:09:29.036Z,91.50
2023-04-19T18:11:59.099Z,56.23
2023-04-19T18:14:27.307Z,34.00
2023-04-19T18:16:55.509Z,21.80
2023-04-19T18:19:24.021Z,17.97
2023-04-19T18:21:52.199Z,16.33
2023-04-19T18:24:20.455Z,18.80
2023-04-19T18:26:48.624Z,18.80
2023-04-19T18:29:19.298Z,20.02
2023-04-19T18:31:47.673Z,17.13
2023-04-19T18:34:15.976Z,20.50
2023-04-19T18:36:44.136Z,19.63
2023-04-19T18:39:13.300Z,19.77
2023-04-19T18:41:41.477Z,20.57
2023-04-19T18:46:42.198Z,18.53
2023-04-19T18:49:10.417Z,24.47
2023-04-19T18:51:39.954Z,27.57
2023-04-19T18:54:08.220Z,41.87
2023-04-19T18:59:10.118Z,33.17
2023-04-19T19:01:38.362Z,26.37
2023-04-19T19:04:31.729Z,23.63
2023-04-19T19:06:59.256Z,17.83
2023-04-19T19:09:30.761Z,19.00
2023-04-19T19:11:59.189Z,18.93
2023-04-19T19:14:27.383Z,17.23
2023-04-19T19:16:55.668Z,23.05
2023-04-19T19:19:25.464Z,24.37
2023-04-19T19:21:53.788Z,28.95
2023-04-19T19:24:21.953Z,24.27
2023-04-19T19:26:50.279Z,24.17
2023-04-19T19:29:22.308Z,25.00
2023-04-19T19:31:51.101Z,19.90
2023-04-19T19:34:28.757Z,19.70
2023-04-19T19:36:59.766Z,19.77
2023-04-19T19:39:28.212Z,19.57
2023-04-19T19:42:05.984Z,20.90
2023-04-19T19:44:34.778Z,19.10
2023-04-19T19:47:09.327Z,18.17
2023-04-19T19:52:10.973Z,22.80
2023-04-19T19:54:39.183Z,19.63
2023-04-19T19:58:06.924Z,19.47
2023-04-19T19:59:56.747Z,18.17
2023-04-19T20:02:27.012Z,20.25
2023-04-19T20:04:55.621Z,19.57
2023-04-19T20:07:42.542Z,19.57
2023-04-19T20:10:14.754Z,22.30
2023-04-19T20:12:44.426Z,21.70
2023-04-19T20:15:13.473Z,21.60
2023-04-19T20:17:42.338Z,21.00
2023-04-19T20:20:11.683Z,21.77
2023-04-19T20:22:41.279Z,23.60
2023-04-19T20:25:10.101Z,19.53
2023-04-19T20:27:38.244Z,16.30
2023-04-19T20:30:07.869Z,21.23
2023-04-19T20:32:36.561Z,18.80
2023-04-19T20:35:08.335Z,17.95
2023-04-19T20:37:37.681Z,19.80
2023-04-19T20:40:09.583Z,17.80
2023-04-19T20:42:37.751Z,20.10
2023-04-19T20:45:06.852Z,17.15
2023-04-19T20:47:37.391Z,16.13
2023-04-19T20:50:06.848Z,20.70
2023-04-19T20:52:35.198Z,21.40
2023-04-19T20:55:03.373Z,19.07
2023-04-19T20:57:32.907Z,20.17
2023-04-19T21:00:01.358Z,20.93
2023-04-19T21:02:29.924Z,21.33
2023-04-19T21:04:58.512Z,25.00
2023-04-19T21:07:27.009Z,24.07
2023-04-19T21:09:55.457Z,22.13
2023-04-19T21:12:24.049Z,24.33
2023-04-19T21:14:53.877Z,19.20
2023-04-19T21:17:22.988Z,19.33
2023-04-19T21:19:51.218Z,19.65
2023-04-19T21:22:19.411Z,21.93
2023-04-19T21:24:47.786Z,19.55
2023-04-19T21:27:19.412Z,22.47
2023-04-19T21:29:48.238Z,32.35
2023-04-19T21:32:22.483Z,22.17
2023-04-19T21:34:50.805Z,28.55
2023-04-19T21:37:20.436Z,21.55
2023-04-19T21:39:49.547Z,23.02
2023-04-19T21:42:17.854Z,22.35
2023-04-19T21:44:46.110Z,20.80
2023-04-19T21:47:21.893Z,21.08
2023-04-19T21:49:51.437Z,23.35
2023-04-19T21:52:20.171Z,20.80
2023-04-19T21:54:48.793Z,20.63
2023-04-19T21:57:17.677Z,24.08
2023-04-19T21:59:46.028Z,24.00
2023-04-19T22:02:16.396Z,25.23
2023-04-19T22:04:46.470Z,22.88
2023-04-19T22:07:18.177Z,22.50
2023-04-19T22:09:47.715Z,25.05
2023-04-19T22:12:19.686Z,22.45
2023-04-19T22:14:53.892Z,24.88
2023-04-19T22:17:23.156Z,21.55
2023-04-19T22:19:54.255Z,23.45
2023-04-19T22:22:25.934Z,22.38
2023-04-19T22:24:58.088Z,25.20
2023-04-19T22:27:26.864Z,20.25
2023-04-19T22:29:55.240Z,26.75
2023-04-19T22:32:23.614Z,23.88
2023-04-19T22:34:53.399Z,20.90
2023-04-19T22:37:21.544Z,19.87
2023-04-19T22:39:49.850Z,21.98
2023-04-19T22:42:18.207Z,19.38
2023-04-19T22:44:46.575Z,22.73
2023-04-19T22:47:16.512Z,21.52
2023-04-19T22:49:45.149Z,20.77
2023-04-19T22:52:15.087Z,20.05
2023-04-19T22:54:43.508Z,21.07
2023-04-19T22:57:12.115Z,20.27
2023-04-19T22:59:40.543Z,21.88
2023-04-19T23:02:09.044Z,20.92
2023-04-19T23:04:38.048Z,20.90
2023-04-19T23:07:07.116Z,21.02
2023-04-19T23:09:39.210Z,21.27
2023-04-19T23:12:08.400Z,22.00
2023-04-19T23:14:38.462Z,19.20
2023-04-19T23:17:07.421Z,19.58
2023-04-19T23:19:36.792Z,17.48
2023-04-19T23:22:05.133Z,20.05
2023-04-19T23:24:33.416Z,17.33
2023-04-19T23:27:03.436Z,19.77
2023-04-19T23:29:31.956Z,20.42
2023-04-19T23:32:00.376Z,19.75
2023-04-19T23:34:28.777Z,22.15
2023-04-19T23:36:57.603Z,18.00
2023-04-19T23:39:26.111Z,18.83
2023-04-19T23:41:54.355Z,18.07
2023-04-19T23:44:24.117Z,16.40
2023-04-19T23:46:52.511Z,19.47
2023-04-19T23:49:20.863Z,16.07
2023-04-19T23:51:50.484Z,14.27
2023-04-19T23:54:22.535Z,14.27
2023-04-19T23:56:50.935Z,20.27
2023-04-19T23:59:19.963Z,13.50
